createdAt,value
2019-01-27T00:01:09.277Z,26.83
2019-01-27T00:03:36.882Z,26.03
2019-01-27T00:06:03.947Z,27.67
2019-01-27T00:08:30.955Z,24.30
2019-01-27T00:10:57.955Z,25.37
2019-01-27T00:13:24.898Z,25.00
2019-01-27T00:15:52.034Z,26.07
2019-01-27T00:18:19.041Z,25.70
2019-01-27T00:21:05.583Z,25.90
2019-01-27T00:23:32.585Z,25.33
2019-01-27T00:25:59.585Z,24.97
2019-01-27T00:28:26.464Z,24.20
2019-01-27T00:30:53.566Z,27.10
2019-01-27T00:33:20.478Z,25.77
2019-01-27T00:35:47.660Z,25.33
2019-01-27T00:38:14.658Z,25.93
2019-01-27T00:40:41.671Z,26.63
2019-01-27T00:43:08.821Z,24.67
2019-01-27T00:45:35.614Z,24.33
2019-01-27T00:48:02.626Z,25.53
2019-01-27T00:50:29.635Z,23.90
2019-01-27T00:52:56.619Z,24.67
2019-01-27T00:55:23.655Z,25.87
2019-01-27T00:57:50.709Z,24.30
2019-01-27T01:00:22.305Z,24.47
2019-01-27T01:02:49.323Z,23.43
2019-01-27T01:05:16.363Z,24.00
2019-01-27T01:07:44.014Z,25.30
2019-01-27T01:10:12.076Z,24.83
2019-01-27T01:12:39.122Z,23.00
2019-01-27T01:15:08.000Z,25.57
2019-01-27T01:17:34.999Z,24.57
2019-01-27T01:20:02.193Z,26.00
2019-01-27T01:22:29.110Z,25.33
2019-01-27T01:24:55.943Z,23.70
2019-01-27T01:27:22.991Z,27.03
2019-01-27T01:29:49.822Z,24.93
2019-01-27T01:32:16.844Z,27.33
2019-01-27T01:34:43.681Z,27.53
2019-01-27T01:37:10.743Z,26.77
2019-01-27T01:39:37.861Z,27.23
2019-01-27T01:42:04.918Z,27.43
2019-01-27T01:44:31.729Z,24.50
2019-01-27T01:46:58.637Z,26.73
2019-01-27T01:49:25.562Z,24.23
2019-01-27T01:51:52.487Z,25.77
2019-01-27T01:54:19.389Z,24.73
2019-01-27T01:56:46.329Z,26.87
2019-01-27T01:59:13.255Z,26.33
2019-01-27T02:01:40.249Z,24.70
2019-01-27T02:04:07.285Z,24.20
2019-01-27T02:06:34.289Z,25.63
2019-01-27T02:09:01.190Z,24.30
2019-01-27T02:11:28.138Z,23.43
2019-01-27T02:13:55.036Z,23.63
2019-01-27T02:16:21.855Z,23.17
2019-01-27T02:18:48.826Z,23.63
2019-01-27T02:21:15.837Z,23.77
2019-01-27T02:23:42.664Z,23.43
2019-01-27T02:26:09.697Z,21.80
2019-01-27T02:28:36.929Z,23.03
2019-01-27T02:31:04.393Z,19.40
2019-01-27T02:33:31.422Z,21.63
2019-01-27T02:35:58.333Z,20.67
2019-01-27T02:38:25.337Z,18.90
2019-01-27T02:40:52.310Z,17.10
2019-01-27T02:43:19.357Z,19.13
2019-01-27T02:45:46.151Z,19.13
2019-01-27T02:48:13.227Z,17.90
2019-01-27T02:50:40.228Z,17.47
2019-01-27T02:53:07.242Z,17.50
2019-01-27T02:55:34.328Z,17.17
2019-01-27T02:58:01.425Z,17.37
2019-01-27T03:00:28.435Z,18.87
2019-01-27T03:02:55.465Z,16.23
2019-01-27T03:05:57.037Z,16.93
2019-01-27T03:08:24.535Z,16.90
2019-01-27T03:10:51.445Z,17.37
2019-01-27T03:13:18.356Z,17.70
2019-01-27T03:15:45.397Z,18.00
2019-01-27T03:18:12.314Z,17.80
2019-01-27T03:20:39.226Z,17.23
2019-01-27T03:23:06.170Z,17.07
2019-01-27T03:25:33.189Z,18.53
2019-01-27T03:28:00.011Z,18.27
2019-01-27T03:30:27.127Z,19.80
2019-01-27T03:32:53.931Z,19.53
2019-01-27T03:35:20.813Z,18.50
2019-01-27T03:37:47.854Z,18.33
2019-01-27T03:40:15.078Z,16.97
2019-01-27T03:42:41.879Z,17.23
2019-01-27T03:45:11.054Z,18.53
2019-01-27T03:47:38.089Z,16.67
2019-01-27T03:50:07.676Z,18.47
2019-01-27T03:52:34.613Z,17.03
2019-01-27T03:55:01.628Z,18.50
2019-01-27T03:57:28.442Z,19.00
2019-01-27T03:59:55.479Z,17.33
2019-01-27T04:02:22.391Z,18.67
2019-01-27T04:04:49.322Z,18.83
2019-01-27T04:07:16.174Z,18.23
2019-01-27T04:09:42.987Z,18.10
2019-01-27T04:12:09.877Z,17.90
2019-01-27T04:14:36.832Z,16.97
2019-01-27T04:17:03.838Z,15.73
2019-01-27T04:19:30.858Z,16.83
2019-01-27T04:21:57.850Z,16.67
2019-01-27T04:24:24.691Z,16.90
2019-01-27T04:26:51.633Z,15.77
2019-01-27T04:29:18.810Z,17.00
2019-01-27T04:31:45.689Z,15.67
2019-01-27T04:34:12.578Z,14.90
2019-01-27T04:36:39.616Z,16.27
2019-01-27T04:39:08.968Z,15.37
2019-01-27T04:41:35.767Z,15.37
2019-01-27T04:44:03.042Z,15.43
2019-01-27T04:46:30.051Z,15.33
2019-01-27T04:48:57.083Z,14.67
2019-01-27T04:51:23.922Z,14.77
2019-01-27T04:53:50.813Z,14.07
2019-01-27T04:56:17.763Z,15.00
2019-01-27T04:58:44.819Z,15.00
2019-01-27T05:01:11.655Z,14.73
2019-01-27T05:04:04.194Z,14.43
2019-01-27T05:06:31.005Z,12.43
2019-01-27T05:08:58.122Z,13.23
2019-01-27T05:11:24.974Z,14.33
2019-01-27T05:13:51.880Z,12.70
2019-01-27T05:16:19.424Z,12.77
2019-01-27T05:18:46.270Z,13.77
2019-01-27T05:21:13.188Z,12.20
2019-01-27T05:23:40.006Z,11.77
2019-01-27T05:26:07.056Z,12.33
2019-01-27T05:28:33.954Z,11.53
2019-01-27T05:31:00.906Z,11.63
2019-01-27T05:33:27.923Z,12.07
2019-01-27T05:35:54.734Z,11.53
2019-01-27T05:38:21.537Z,11.53
2019-01-27T05:40:48.514Z,11.47
2019-01-27T05:43:15.487Z,10.93
2019-01-27T05:45:42.389Z,9.40
2019-01-27T05:48:09.213Z,10.77
2019-01-27T05:50:36.415Z,10.53
2019-01-27T05:53:03.432Z,11.10
2019-01-27T05:55:30.373Z,10.43
2019-01-27T05:57:59.209Z,10.03
2019-01-27T06:00:30.913Z,10.43
2019-01-27T06:02:57.866Z,9.60
2019-01-27T06:05:24.895Z,9.60
2019-01-27T06:07:51.726Z,9.63
2019-01-27T06:10:18.733Z,8.90
2019-01-27T06:12:45.630Z,9.13
2019-01-27T06:15:13.421Z,9.40
2019-01-27T06:17:40.390Z,9.23
2019-01-27T06:20:09.488Z,8.80
2019-01-27T06:22:36.477Z,9.23
2019-01-27T06:25:04.743Z,9.30
2019-01-27T06:27:31.550Z,8.57
2019-01-27T06:29:58.471Z,9.17
2019-01-27T06:32:46.903Z,10.03
2019-01-27T06:35:13.937Z,8.50
2019-01-27T06:37:40.755Z,9.13
2019-01-27T06:40:07.890Z,8.03
2019-01-27T06:42:34.710Z,8.77
2019-01-27T06:45:01.713Z,8.97
2019-01-27T06:47:28.674Z,8.80
2019-01-27T06:49:55.469Z,9.07
2019-01-27T06:52:22.270Z,8.93
2019-01-27T06:54:49.117Z,8.70
2019-01-27T06:57:16.122Z,8.80
2019-01-27T06:59:56.396Z,9.03
2019-01-27T07:02:45.950Z,8.47
2019-01-27T07:05:18.335Z,8.30
2019-01-27T07:07:54.769Z,9.07
2019-01-27T07:10:59.437Z,9.67
2019-01-27T07:13:46.090Z,8.80
2019-01-27T07:16:32.599Z,9.40
2019-01-27T07:19:18.119Z,9.40
2019-01-27T07:22:10.852Z,8.37
2019-01-27T07:24:48.149Z,8.20
2019-01-27T07:27:37.474Z,8.20
2019-01-27T07:30:26.000Z,7.87
2019-01-27T07:33:11.306Z,8.97
2019-01-27T07:35:50.673Z,7.37
2019-01-27T07:38:55.374Z,8.77
2019-01-27T07:41:33.085Z,8.40
2019-01-27T07:44:14.089Z,8.27
2019-01-27T07:47:12.969Z,9.03
2019-01-27T07:49:48.530Z,8.27
2019-01-27T07:52:50.354Z,7.80
2019-01-27T07:55:36.949Z,6.53
2019-01-27T07:58:13.089Z,7.43
2019-01-27T08:00:59.681Z,7.77
2019-01-27T08:03:44.813Z,6.87
2019-01-27T08:06:29.980Z,7.10
2019-01-27T08:09:25.314Z,7.73
2019-01-27T08:12:04.489Z,8.33
2019-01-27T08:14:45.725Z,8.20
2019-01-27T08:17:35.053Z,8.10
2019-01-27T08:20:12.795Z,8.73
2019-01-27T08:22:45.645Z,7.93
2019-01-27T08:25:31.586Z,7.20
2019-01-27T08:28:17.794Z,8.50
2019-01-27T08:30:52.781Z,7.43
2019-01-27T08:33:39.281Z,7.83
2019-01-27T08:36:24.378Z,7.53
2019-01-27T08:39:10.968Z,8.60
2019-01-27T08:42:03.508Z,7.90
2019-01-27T08:44:56.275Z,7.60
2019-01-27T08:47:23.126Z,7.40
2019-01-27T08:49:49.914Z,7.37
2019-01-27T08:52:16.773Z,7.23
2019-01-27T08:54:43.675Z,7.57
2019-01-27T08:57:10.498Z,7.30
2019-01-27T08:59:37.428Z,7.67
2019-01-27T09:02:36.263Z,6.90
2019-01-27T09:05:23.972Z,7.07
2019-01-27T09:08:13.247Z,6.90
2019-01-27T09:10:49.064Z,7.00
2019-01-27T09:13:33.966Z,6.60
2019-01-27T09:16:29.678Z,7.10
2019-01-27T09:19:15.173Z,6.70
2019-01-27T09:21:56.706Z,7.13
2019-01-27T09:24:41.627Z,7.27
2019-01-27T09:27:34.474Z,7.03
2019-01-27T09:30:33.475Z,6.97
2019-01-27T09:33:38.317Z,6.63
2019-01-27T09:36:23.769Z,7.27
2019-01-27T09:39:28.658Z,7.03
2019-01-27T09:42:07.490Z,7.17
2019-01-27T09:44:38.965Z,6.90
2019-01-27T09:47:12.850Z,6.47
2019-01-27T09:49:58.321Z,6.67
2019-01-27T09:52:38.486Z,6.30
2019-01-27T09:55:18.770Z,6.37
2019-01-27T09:57:58.167Z,6.13
2019-01-27T10:00:51.337Z,6.50
2019-01-27T10:03:31.769Z,5.90
2019-01-27T10:06:13.785Z,6.13
2019-01-27T10:09:09.405Z,6.73
2019-01-27T10:11:57.253Z,6.20
2019-01-27T10:14:32.656Z,5.33
2019-01-27T10:17:25.394Z,5.63
2019-01-27T10:20:03.380Z,5.60
2019-01-27T10:22:48.498Z,5.30
2019-01-27T10:25:39.355Z,5.47
2019-01-27T10:28:28.777Z,5.53
2019-01-27T10:31:05.383Z,5.23
2019-01-27T10:33:41.974Z,5.90
2019-01-27T10:36:27.294Z,5.20
2019-01-27T10:39:09.357Z,5.10
2019-01-27T10:41:44.168Z,5.17
2019-01-27T10:44:33.458Z,4.90
2019-01-27T10:47:22.821Z,4.57
2019-01-27T10:50:01.731Z,4.93
2019-01-27T10:52:54.315Z,4.90
2019-01-27T10:55:38.113Z,4.80
2019-01-27T10:58:27.628Z,4.00
2019-01-27T11:01:10.069Z,5.67
2019-01-27T11:03:46.179Z,4.40
2019-01-27T11:06:36.049Z,4.40
2019-01-27T11:09:41.544Z,4.77
2019-01-27T11:12:35.558Z,4.23
2019-01-27T11:15:23.095Z,4.90
2019-01-27T11:18:00.513Z,4.63
2019-01-27T11:20:39.975Z,4.13
2019-01-27T11:23:26.309Z,4.13
2019-01-27T11:26:11.013Z,5.37
2019-01-27T11:28:47.926Z,4.67
2019-01-27T11:31:29.231Z,4.43
2019-01-27T11:34:15.747Z,3.80
2019-01-27T11:36:59.254Z,3.93
2019-01-27T11:39:45.867Z,4.03
2019-01-27T11:42:32.422Z,4.57
2019-01-27T11:45:22.036Z,4.00
2019-01-27T11:48:08.531Z,4.03
2019-01-27T11:50:57.278Z,4.20
2019-01-27T11:53:24.317Z,3.93
2019-01-27T11:55:51.251Z,3.93
2019-01-27T11:58:18.083Z,3.13
2019-01-27T12:00:48.741Z,3.27
2019-01-27T12:03:15.639Z,3.03
2019-01-27T12:05:42.489Z,4.07
2019-01-27T12:08:09.426Z,3.37
2019-01-27T12:10:36.429Z,3.30
2019-01-27T12:13:03.667Z,3.17
2019-01-27T12:15:30.742Z,3.70
2019-01-27T12:17:57.761Z,3.47
2019-01-27T12:20:24.684Z,3.67
2019-01-27T12:22:51.693Z,4.03
2019-01-27T12:25:21.268Z,3.87
2019-01-27T12:27:47.971Z,3.70
2019-01-27T12:30:16.527Z,4.20
2019-01-27T12:32:43.535Z,4.50
2019-01-27T12:35:10.608Z,4.23
2019-01-27T12:37:37.663Z,3.80
2019-01-27T12:40:06.999Z,4.83
2019-01-27T12:42:33.868Z,4.47
2019-01-27T12:45:00.794Z,4.00
2019-01-27T12:47:47.246Z,3.87
2019-01-27T12:50:15.369Z,4.67
2019-01-27T12:52:42.515Z,3.80
2019-01-27T12:55:10.754Z,4.83
2019-01-27T12:57:37.728Z,4.80
2019-01-27T13:00:27.765Z,4.40
2019-01-27T13:02:54.707Z,4.07
2019-01-27T13:05:21.858Z,4.57
2019-01-27T13:07:48.806Z,4.67
2019-01-27T13:10:15.890Z,4.70
2019-01-27T13:12:42.998Z,4.83
2019-01-27T13:15:12.450Z,5.20
2019-01-27T13:17:39.382Z,4.90
2019-01-27T13:20:07.249Z,5.20
2019-01-27T13:22:35.642Z,4.87
2019-01-27T13:25:03.934Z,4.80
2019-01-27T13:27:30.857Z,5.50
2019-01-27T13:29:57.723Z,5.27
2019-01-27T13:32:24.743Z,5.47
2019-01-27T13:34:56.185Z,5.13
2019-01-27T13:37:20.430Z,5.60
2019-01-27T13:39:47.345Z,5.00
2019-01-27T13:42:14.266Z,4.73
2019-01-27T13:44:41.158Z,4.77
2019-01-27T13:47:08.195Z,5.37
2019-01-27T13:49:35.102Z,5.67
2019-01-27T13:52:04.006Z,5.77
2019-01-27T13:54:30.930Z,6.10
2019-01-27T13:56:58.003Z,5.50
2019-01-27T13:59:24.877Z,5.40
2019-01-27T14:01:51.694Z,4.67
2019-01-27T14:04:18.511Z,5.90
2019-01-27T14:06:45.574Z,5.30
2019-01-27T14:09:12.378Z,5.57
2019-01-27T14:11:39.398Z,4.63
2019-01-27T14:14:06.346Z,5.13
2019-01-27T14:16:33.272Z,5.43
2019-01-27T14:19:00.183Z,5.23
2019-01-27T14:21:27.256Z,5.30
2019-01-27T14:23:55.960Z,5.50
2019-01-27T14:26:22.928Z,5.67
2019-01-27T14:28:49.950Z,5.17
2019-01-27T14:31:16.858Z,5.47
2019-01-27T14:33:43.670Z,5.60
2019-01-27T14:36:10.612Z,5.90
2019-01-27T14:38:37.519Z,6.00
2019-01-27T14:41:06.299Z,6.07
2019-01-27T14:43:33.436Z,5.53
2019-01-27T14:46:00.441Z,6.27
2019-01-27T14:48:27.622Z,6.00
2019-01-27T14:50:54.661Z,5.97
2019-01-27T14:53:21.479Z,5.90
2019-01-27T14:55:49.422Z,5.13
2019-01-27T14:58:16.560Z,6.33
2019-01-27T15:00:43.880Z,6.40
2019-01-27T15:03:12.222Z,6.20
2019-01-27T15:05:39.262Z,6.80
2019-01-27T15:08:06.878Z,6.47
2019-01-27T15:10:33.920Z,6.13
2019-01-27T15:13:01.065Z,6.03
2019-01-27T15:15:28.000Z,6.13
2019-01-27T15:17:54.929Z,6.30
2019-01-27T15:20:30.305Z,5.90
2019-01-27T15:22:57.230Z,5.40
2019-01-27T15:25:24.231Z,5.97
2019-01-27T15:27:51.281Z,6.17
2019-01-27T15:30:23.408Z,6.13
2019-01-27T15:32:50.323Z,6.17
2019-01-27T15:35:17.365Z,6.80
2019-01-27T15:37:44.389Z,7.13
2019-01-27T15:40:11.675Z,7.43
2019-01-27T15:42:38.717Z,8.43
2019-01-27T15:45:07.151Z,7.27
2019-01-27T15:47:33.986Z,7.67
2019-01-27T15:50:01.041Z,9.43
2019-01-27T15:52:28.061Z,9.50
2019-01-27T15:54:54.888Z,9.30
2019-01-27T15:57:21.846Z,9.77
2019-01-27T15:59:48.649Z,9.97
2019-01-27T16:02:15.556Z,9.70
2019-01-27T16:04:42.489Z,9.67
2019-01-27T16:07:09.507Z,9.87
2019-01-27T16:09:36.398Z,10.77
2019-01-27T16:12:03.446Z,10.17
2019-01-27T16:14:30.267Z,10.87
2019-01-27T16:16:57.381Z,10.70
2019-01-27T16:19:24.489Z,11.87
2019-01-27T16:21:51.609Z,11.03
2019-01-27T16:24:23.293Z,11.73
2019-01-27T16:26:50.153Z,11.93
2019-01-27T16:29:19.097Z,11.70
2019-01-27T16:31:50.638Z,12.60
2019-01-27T16:34:30.093Z,12.63
2019-01-27T16:36:58.169Z,13.23
2019-01-27T16:39:24.976Z,13.60
2019-01-27T16:41:51.808Z,14.63
2019-01-27T16:44:18.817Z,14.63
2019-01-27T16:46:45.808Z,14.73
2019-01-27T16:49:12.899Z,15.37
2019-01-27T16:51:39.833Z,14.93
2019-01-27T16:54:06.849Z,14.77
2019-01-27T16:56:33.917Z,16.07
2019-01-27T16:59:00.868Z,15.00
2019-01-27T17:01:28.829Z,17.23
2019-01-27T17:03:58.537Z,16.73
2019-01-27T17:06:25.456Z,15.93
2019-01-27T17:08:52.427Z,14.07
2019-01-27T17:11:19.465Z,15.30
2019-01-27T17:13:46.493Z,14.60
2019-01-27T17:16:13.426Z,14.93
2019-01-27T17:18:44.532Z,15.37
2019-01-27T17:21:11.477Z,14.93
2019-01-27T17:23:38.282Z,16.77
2019-01-27T17:26:05.385Z,14.80
2019-01-27T17:28:32.562Z,14.60
2019-01-27T17:30:59.618Z,15.20
2019-01-27T17:33:26.999Z,13.67
2019-01-27T17:35:54.176Z,15.33
2019-01-27T17:38:21.202Z,13.87
2019-01-27T17:40:48.170Z,14.57
2019-01-27T17:43:14.969Z,14.17
2019-01-27T17:45:42.202Z,12.97
2019-01-27T17:48:09.252Z,14.93
2019-01-27T17:50:36.365Z,15.63
2019-01-27T17:53:04.122Z,14.90
2019-01-27T17:55:43.860Z,14.17
2019-01-27T17:58:34.941Z,14.30
2019-01-27T18:01:20.702Z,13.87
2019-01-27T18:04:05.843Z,14.00
2019-01-27T18:07:04.947Z,14.43
2019-01-27T18:09:41.111Z,14.90
2019-01-27T18:12:26.355Z,15.87
2019-01-27T18:14:55.899Z,16.07
2019-01-27T18:17:22.701Z,15.20
2019-01-27T18:19:51.778Z,15.33
2019-01-27T18:22:18.770Z,16.20
2019-01-27T18:24:45.603Z,16.13
2019-01-27T18:27:12.437Z,16.83
2019-01-27T18:29:39.464Z,17.87
2019-01-27T18:32:06.461Z,17.40
2019-01-27T18:34:33.438Z,17.20
2019-01-27T18:37:00.546Z,18.20
2019-01-27T18:39:27.368Z,16.67
2019-01-27T18:41:54.529Z,17.70
2019-01-27T18:44:21.333Z,17.23
2019-01-27T18:46:49.494Z,17.50
2019-01-27T18:49:16.884Z,16.77
2019-01-27T18:51:45.758Z,17.87
2019-01-27T18:54:31.446Z,17.10
2019-01-27T18:57:13.616Z,18.57
2019-01-27T18:59:54.803Z,18.87
2019-01-27T19:02:41.143Z,18.73
2019-01-27T19:05:41.408Z,19.40
2019-01-27T19:08:28.299Z,18.90
2019-01-27T19:11:19.029Z,19.23
2019-01-27T19:14:08.005Z,19.40
2019-01-27T19:16:44.165Z,18.63
2019-01-27T19:19:40.022Z,18.13
2019-01-27T19:22:33.766Z,17.63
2019-01-27T19:25:26.477Z,17.23
2019-01-27T19:28:11.790Z,17.97
2019-01-27T19:31:03.045Z,18.93
2019-01-27T19:33:37.797Z,19.80
2019-01-27T19:36:27.877Z,19.77
2019-01-27T19:39:07.573Z,18.87
2019-01-27T19:41:53.280Z,20.33
2019-01-27T19:44:37.190Z,20.57
2019-01-27T19:47:13.995Z,19.33
2019-01-27T19:50:13.041Z,18.87
2019-01-27T19:53:00.126Z,19.87
2019-01-27T19:55:47.374Z,21.20
2019-01-27T19:58:31.301Z,20.40
2019-01-27T20:01:18.611Z,23.13
2019-01-27T20:04:04.124Z,21.47
2019-01-27T20:06:52.126Z,24.17
2019-01-27T20:09:33.891Z,23.07
2019-01-27T20:12:30.190Z,22.30
2019-01-27T20:15:03.370Z,23.93
2019-01-27T20:17:50.591Z,22.60
2019-01-27T20:20:40.853Z,22.83
2019-01-27T20:23:26.815Z,22.50
2019-01-27T20:26:11.199Z,22.97
2019-01-27T20:29:14.310Z,22.07
2019-01-27T20:32:08.437Z,20.37
2019-01-27T20:34:55.689Z,19.83
2019-01-27T20:37:44.826Z,24.00
2019-01-27T20:40:37.899Z,21.37
2019-01-27T20:43:13.477Z,21.63
2019-01-27T20:45:55.177Z,23.97
2019-01-27T20:48:40.458Z,21.83
2019-01-27T20:51:26.186Z,24.50
2019-01-27T20:54:04.058Z,22.93
2019-01-27T20:56:50.227Z,24.47
2019-01-27T20:59:38.708Z,22.63
2019-01-27T21:02:38.513Z,22.33
2019-01-27T21:05:44.426Z,23.77
2019-01-27T21:08:34.626Z,20.97
2019-01-27T21:11:36.298Z,22.37
2019-01-27T21:14:19.726Z,22.03
2019-01-27T21:17:08.417Z,20.53
2019-01-27T21:19:45.387Z,20.33
2019-01-27T21:22:13.627Z,21.77
2019-01-27T21:24:42.366Z,20.87
2019-01-27T21:27:10.469Z,19.80
2019-01-27T21:29:38.836Z,20.07
2019-01-27T21:32:06.501Z,19.20
2019-01-27T21:34:34.663Z,20.80
2019-01-27T21:37:02.141Z,19.83
2019-01-27T21:39:29.153Z,18.50
2019-01-27T21:41:56.089Z,18.73
2019-01-27T21:44:22.993Z,18.03
2019-01-27T21:46:49.906Z,18.27
2019-01-27T21:49:16.859Z,17.53
2019-01-27T21:51:43.654Z,18.10
2019-01-27T21:54:10.490Z,17.80
2019-01-27T21:56:38.656Z,19.03
2019-01-27T21:59:05.570Z,17.00
2019-01-27T22:01:32.547Z,17.93
2019-01-27T22:03:59.373Z,19.07
2019-01-27T22:06:26.398Z,18.13
2019-01-27T22:08:53.194Z,18.13
2019-01-27T22:11:20.039Z,17.43
2019-01-27T22:13:47.087Z,18.13
2019-01-27T22:16:14.074Z,17.20
2019-01-27T22:18:40.959Z,17.80
2019-01-27T22:21:07.985Z,18.97
2019-01-27T22:23:35.011Z,18.83
2019-01-27T22:26:01.967Z,19.30
2019-01-27T22:28:28.899Z,19.13
2019-01-27T22:30:55.713Z,19.43
2019-01-27T22:33:22.766Z,18.57
2019-01-27T22:35:49.666Z,20.50
2019-01-27T22:38:16.584Z,23.37
2019-01-27T22:40:43.445Z,25.10
2019-01-27T22:43:10.270Z,25.97
2019-01-27T22:45:37.189Z,26.93
2019-01-27T22:48:04.234Z,30.27
2019-01-27T22:50:33.338Z,26.90
2019-01-27T22:53:00.285Z,29.57
2019-01-27T22:55:27.769Z,30.77
2019-01-27T22:57:54.798Z,27.90
2019-01-27T23:00:59.901Z,28.77
2019-01-27T23:03:29.115Z,28.53
2019-01-27T23:05:56.054Z,28.33
2019-01-27T23:08:23.118Z,30.57
2019-01-27T23:10:50.085Z,32.90
2019-01-27T23:13:17.138Z,30.03
2019-01-27T23:15:44.198Z,33.00
2019-01-27T23:18:11.097Z,30.10
2019-01-27T23:20:38.054Z,31.63
2019-01-27T23:23:05.072Z,27.57
2019-01-27T23:25:31.898Z,26.37
2019-01-27T23:27:58.959Z,20.90
2019-01-27T23:30:25.906Z,23.97
2019-01-27T23:32:52.828Z,21.77
2019-01-27T23:35:19.747Z,23.13
2019-01-27T23:37:48.817Z,22.23
2019-01-27T23:40:15.851Z,21.50
2019-01-27T23:42:42.898Z,22.27
2019-01-27T23:45:10.173Z,20.67
2019-01-27T23:47:37.109Z,20.17
2019-01-27T23:50:04.550Z,21.30
2019-01-27T23:52:31.521Z,21.60
2019-01-27T23:54:58.477Z,20.40
2019-01-27T23:57:25.308Z,18.83
2019-01-27T23:59:52.250Z,20.07
